Time;durP1;ratioP1;P1;durP2;ratioP2;P2;SDS_P1;SDS_P2;PMS_P1;PMS_P2;Temp;Humidity;BMP_temperature;BMP_pressure;BME280_temperature;BME280_humidity;BME280_pressure;Samples;Min_cycle;Max_cycle;Signal;HPM_P1;HPM_P2
2021/08/13 00:00:09;;;;;;;;;25.50;23.00;36.10;23.10;;;;;;691900;28;6041;-85
2021/08/13 00:00:30;;;;;;;;;23.25;22.50;36.10;23.10;;;;;;691742;28;6223;-85
2021/08/13 00:00:50;;;;;;;;;25.00;23.80;36.10;23.10;;;;;;691505;28;6689;-82
2021/08/13 00:01:11;;;;;;;;;21.25;21.00;36.10;23.10;;;;;;691629;28;6103;-83
2021/08/13 00:01:32;;;;;;;;;21.00;21.00;36.10;23.20;;;;;;691705;28;6100;-84
2021/08/13 00:01:52;;;;;;;;;20.00;20.00;36.10;23.10;;;;;;691530;28;6047;-84
2021/08/13 00:02:15;;;;;;;;;22.00;21.00;36.10;23.10;;;;;;691715;28;6115;-84
2021/08/13 00:02:35;;;;;;;;;23.80;22.20;36.10;23.30;;;;;;691235;28;6512;-84
2021/08/13 00:02:56;;;;;;;;;23.50;22.50;36.10;23.10;;;;;;691451;28;6107;-84
2021/08/13 00:03:17;;;;;;;;;26.50;22.00;36.10;23.20;;;;;;691489;28;6149;-84
2021/08/13 00:03:37;;;;;;;;;24.00;22.60;36.10;23.30;;;;;;691114;28;6168;-85
2021/08/13 00:03:58;;;;;;;;;22.00;22.00;36.10;23.20;;;;;;691087;28;5944;-87
2021/08/13 00:04:19;;;;;;;;;23.50;22.00;36.10;23.20;;;;;;691317;28;6108;-84
2021/08/13 00:04:39;;;;;;;;;23.00;21.00;36.10;23.40;;;;;;691300;28;6214;-84
2021/08/13 00:05:00;;;;;;;;;26.00;25.00;36.10;23.30;;;;;;691265;28;6018;-85
2021/08/13 00:05:21;;;;;;;;;23.00;22.00;36.10;23.30;;;;;;691714;28;6273;-84
2021/08/13 00:05:42;;;;;;;;;26.00;24.00;36.00;23.20;;;;;;691924;28;7088;-84
2021/08/13 00:06:03;;;;;;;;;27.40;24.40;36.10;23.30;;;;;;691649;28;6139;-84
2021/08/13 00:06:23;;;;;;;;;20.60;20.60;36.20;23.50;;;;;;691378;28;6140;-83
2021/08/13 00:06:44;;;;;;;;;24.00;23.00;36.10;23.30;;;;;;685604;28;6944;-86
2021/08/13 00:07:05;;;;;;;;;24.00;23.60;36.10;23.30;;;;;;686446;28;6168;-84
2021/08/13 00:07:26;;;;;;;;;25.67;24.67;36.10;23.20;;;;;;688567;28;6051;-84
2021/08/13 00:07:47;;;;;;;;;29.00;27.00;36.10;23.10;;;;;;688557;28;6286;-84
2021/08/13 00:08:08;;;;;;;;;24.25;24.25;36.10;23.20;;;;;;688428;28;6785;-84
2021/08/13 00:08:29;;;;;;;;;22.80;22.00;36.10;23.20;;;;;;688955;28;6400;-84
2021/08/13 00:08:50;;;;;;;;;24.40;22.80;36.10;23.20;;;;;;691490;28;6151;-84
2021/08/13 00:09:11;;;;;;;;;23.00;22.00;36.10;23.10;;;;;;691650;28;6012;-84
2021/08/13 00:09:31;;;;;;;;;23.20;22.80;36.10;23.20;;;;;;691474;28;6717;-85
2021/08/13 00:09:52;;;;;;;;;21.75;21.75;36.10;23.30;;;;;;691246;28;6824;-84
2021/08/13 00:10:13;;;;;;;;;23.00;23.00;36.10;23.50;;;;;;691198;28;6160;-82
2021/08/13 00:10:33;;;;;;;;;22.40;20.40;36.10;23.60;;;;;;688633;28;6271;-81
2021/08/13 00:10:54;;;;;;;;;22.50;21.00;36.10;23.20;;;;;;688906;28;6093;-83
2021/08/13 00:11:15;;;;;;;;;29.40;28.40;36.10;23.30;;;;;;688616;28;6189;-82
2021/08/13 00:11:37;;;;;;;;;24.67;23.00;36.10;23.40;;;;;;688530;28;5990;-85
2021/08/13 00:11:58;;;;;;;;;19.40;18.00;36.10;23.40;;;;;;688130;28;6197;-85
2021/08/13 00:12:19;;;;;;;;;20.60;20.60;36.10;23.30;;;;;;686193;28;7049;-85
2021/08/13 00:12:40;;;;;;;;;25.40;23.60;36.00;23.20;;;;;;691120;28;6113;-84
2021/08/13 00:13:01;;;;;;;;;27.00;23.00;36.10;23.30;;;;;;691078;28;6163;-84
2021/08/13 00:13:21;;;;;;;;;23.40;21.40;36.10;23.30;;;;;;691072;28;6254;-85
2021/08/13 00:13:42;;;;;;;;;27.00;26.00;36.10;23.20;;;;;;691076;28;7037;-85
2021/08/13 00:14:04;;;;;;;;;23.50;22.50;36.00;23.30;;;;;;691107;28;6013;-84
2021/08/13 00:14:25;;;;;;;;;23.60;22.60;36.00;23.20;;;;;;691341;28;6329;-85
2021/08/13 00:14:45;;;;;;;;;21.80;21.40;36.10;23.20;;;;;;691343;28;6118;-85
2021/08/13 00:15:08;;;;;;;;;24.00;23.00;36.00;23.60;;;;;;691577;28;5995;-82
2021/08/13 00:15:29;;;;;;;;;30.00;26.60;36.00;23.50;;;;;;691448;28;6820;-82
2021/08/13 00:15:49;;;;;;;;;26.50;26.00;36.00;23.20;;;;;;691511;28;6170;-82
2021/08/13 00:16:10;;;;;;;;;25.50;23.50;36.00;23.30;;;;;;691313;28;6184;-86
2021/08/13 00:16:31;;;;;;;;;21.00;19.25;36.00;23.20;;;;;;691462;28;6012;-83
2021/08/13 00:16:52;;;;;;;;;26.00;23.40;36.00;23.20;;;;;;691471;28;6236;-83
2021/08/13 00:17:13;;;;;;;;;29.50;23.00;36.00;23.20;;;;;;691380;28;6017;-83
2021/08/13 00:17:33;;;;;;;;;27.00;26.25;36.00;23.20;;;;;;691677;28;6121;-83
2021/08/13 00:17:54;;;;;;;;;29.80;26.40;36.00;23.30;;;;;;691486;28;6131;-88
2021/08/13 00:18:15;;;;;;;;;26.00;24.40;36.00;23.20;;;;;;691617;28;6105;-86
2021/08/13 00:18:36;;;;;;;;;22.50;21.50;36.00;23.30;;;;;;691400;28;6053;-85
2021/08/13 00:18:56;;;;;;;;;22.00;22.00;36.00;23.30;;;;;;691479;28;6117;-85
2021/08/13 00:19:17;;;;;;;;;23.00;23.00;36.10;23.30;;;;;;694082;28;6095;-87
2021/08/13 00:19:38;;;;;;;;;23.00;21.00;36.00;23.20;;;;;;694009;28;6036;-86
2021/08/13 00:19:59;;;;;;;;;23.00;22.40;36.00;23.30;;;;;;693842;28;6172;-86
2021/08/13 00:20:20;;;;;;;;;22.00;22.00;36.00;23.20;;;;;;690810;28;6120;-84
2021/08/13 00:20:41;;;;;;;;;24.00;22.00;36.00;23.30;;;;;;691230;28;6842;-84
2021/08/13 00:21:02;;;;;;;;;24.50;22.50;36.00;23.40;;;;;;691346;28;6206;-84
2021/08/13 00:21:23;;;;;;;;;23.50;21.50;36.00;23.40;;;;;;691205;28;6204;-85
2021/08/13 00:21:44;;;;;;;;;26.40;21.40;36.00;23.30;;;;;;691040;28;6141;-86
2021/08/13 00:22:04;;;;;;;;;24.60;23.60;36.00;23.20;;;;;;691287;28;6043;-86
2021/08/13 00:22:25;;;;;;;;;21.00;20.00;36.00;23.30;;;;;;691224;28;6807;-86
2021/08/13 00:22:47;;;;;;;;;22.00;21.00;36.10;23.30;;;;;;691302;28;6082;-84
2021/08/13 00:23:08;;;;;;;;;23.60;22.60;36.00;23.30;;;;;;691007;28;6260;-85
2021/08/13 00:23:30;;;;;;;;;20.60;19.00;36.00;23.30;;;;;;688135;28;6226;-83
2021/08/13 00:23:51;;;;;;;;;23.40;21.40;36.00;23.40;;;;;;688083;28;6958;-83
2021/08/13 00:24:12;;;;;;;;;20.00;20.00;36.00;23.30;;;;;;688308;28;6158;-84
2021/08/13 00:24:33;;;;;;;;;21.80;21.80;36.00;23.30;;;;;;689170;28;6818;-84
2021/08/13 00:24:54;;;;;;;;;23.25;21.75;36.10;23.30;;;;;;691198;28;6005;-84
2021/08/13 00:25:14;;;;;;;;;23.00;23.00;36.00;23.20;;;;;;691083;28;6203;-84
2021/08/13 00:25:36;;;;;;;;;20.50;20.50;36.00;23.50;;;;;;691126;28;6221;-83
2021/08/13 00:25:57;;;;;;;;;24.00;21.80;36.00;23.30;;;;;;690992;28;6507;-85
2021/08/13 00:26:19;;;;;;;;;25.00;23.67;36.00;23.20;;;;;;691042;28;5998;-86
2021/08/13 00:26:40;;;;;;;;;21.75;21.75;36.00;23.20;;;;;;691026;28;6857;-84
2021/08/13 00:27:01;;;;;;;;;19.25;19.00;36.00;23.40;;;;;;691072;28;6088;-85
2021/08/13 00:27:22;;;;;;;;;24.20;23.20;36.00;23.40;;;;;;691106;28;6645;-86
2021/08/13 00:27:43;;;;;;;;;22.40;20.80;36.00;23.30;;;;;;691262;28;6125;-86
2021/08/13 00:28:05;;;;;;;;;26.40;23.60;36.00;23.20;;;;;;691420;28;6114;-84
2021/08/13 00:28:25;;;;;;;;;22.00;19.00;36.00;23.30;;;;;;690847;28;6306;-82
2021/08/13 00:28:46;;;;;;;;;23.00;19.75;36.00;23.20;;;;;;690872;28;6771;-86
2021/08/13 00:29:07;;;;;;;;;20.25;19.00;36.00;23.30;;;;;;691017;28;6031;-90
2021/08/13 00:29:28;;;;;;;;;24.80;21.60;36.00;23.30;;;;;;688237;28;6167;-86
2021/08/13 00:29:48;;;;;;;;;22.80;22.80;36.00;23.30;;;;;;688289;28;7335;-84
2021/08/13 00:30:10;;;;;;;;;21.50;21.00;36.00;23.20;;;;;;688680;28;6339;-84
2021/08/13 00:30:30;;;;;;;;;23.80;22.40;36.00;23.10;;;;;;691009;28;6260;-85
2021/08/13 00:30:51;;;;;;;;;21.00;20.25;36.00;23.20;;;;;;691191;28;6033;-85
2021/08/13 00:31:12;;;;;;;;;23.00;21.00;36.00;23.30;;;;;;691198;28;6037;-83
2021/08/13 00:31:33;;;;;;;;;21.00;20.00;36.00;23.40;;;;;;691129;28;6040;-83
2021/08/13 00:31:53;;;;;;;;;21.60;20.40;36.00;23.30;;;;;;690686;28;6226;-85
2021/08/13 00:32:14;;;;;;;;;21.00;19.00;36.00;23.30;;;;;;690988;28;6135;-85
2021/08/13 00:32:35;;;;;;;;;22.00;20.50;36.00;23.30;;;;;;690968;28;6242;-83
2021/08/13 00:32:56;;;;;;;;;23.00;22.25;36.00;23.50;;;;;;691045;28;6028;-85
2021/08/13 00:33:16;;;;;;;;;24.75;21.75;36.00;23.40;;;;;;688386;28;6096;-84
2021/08/13 00:33:37;;;;;;;;;21.00;20.25;36.00;23.30;;;;;;685948;28;6039;-83
2021/08/13 00:33:58;;;;;;;;;21.80;21.20;36.00;23.30;;;;;;688273;28;6092;-83
2021/08/13 00:34:18;;;;;;;;;17.25;17.25;36.00;23.30;;;;;;688314;28;6089;-84
2021/08/13 00:34:39;;;;;;;;;20.25;19.75;36.00;23.20;;;;;;685527;28;6107;-85
2021/08/13 00:35:00;;;;;;;;;24.00;23.00;36.00;23.30;;;;;;685805;28;6188;-85
2021/08/13 00:35:21;;;;;;;;;21.75;20.75;36.00;23.30;;;;;;688825;28;6157;-85
2021/08/13 00:35:42;;;;;;;;;23.00;19.00;36.00;23.30;;;;;;690871;28;6246;-86
2021/08/13 00:36:03;;;;;;;;;20.40;19.80;36.00;23.30;;;;;;691175;28;6148;-85
2021/08/13 00:36:24;;;;;;;;;20.60;20.00;36.00;23.30;;;;;;688653;28;6387;-83
2021/08/13 00:36:44;;;;;;;;;17.00;17.00;36.00;23.30;;;;;;690978;28;5997;-87
2021/08/13 00:37:05;;;;;;;;;20.40;19.40;36.00;23.30;;;;;;690900;28;6127;-85
2021/08/13 00:37:26;;;;;;;;;26.40;23.40;36.00;24.50;;;;;;688302;28;6243;-86
2021/08/13 00:37:47;;;;;;;;;23.00;20.00;36.00;23.60;;;;;;688763;28;6873;-89
2021/08/13 00:38:09;;;;;;;;;21.50;19.50;36.00;23.90;;;;;;688806;28;6165;-84
2021/08/13 00:38:29;;;;;;;;;21.40;20.20;36.00;24.10;;;;;;691018;28;6710;-85
2021/08/13 00:38:51;;;;;;;;;18.50;18.00;36.00;24.40;;;;;;688340;28;6111;-87
2021/08/13 00:39:11;;;;;;;;;20.00;20.00;36.00;24.00;;;;;;688771;28;6172;-88
2021/08/13 00:39:32;;;;;;;;;21.25;19.00;36.00;23.70;;;;;;691410;28;6234;-91
2021/08/13 00:39:53;;;;;;;;;22.00;20.00;36.00;24.30;;;;;;691000;28;6801;-88
2021/08/13 00:40:15;;;;;;;;;21.20;20.20;36.00;24.10;;;;;;691145;28;6103;-88
2021/08/13 00:40:35;;;;;;;;;19.40;19.40;36.00;24.00;;;;;;688706;28;8075;-87
2021/08/13 00:40:56;;;;;;;;;18.60;18.60;36.00;24.20;;;;;;691214;28;6135;-85
2021/08/13 00:41:17;;;;;;;;;19.00;18.00;36.00;23.90;;;;;;691184;28;6245;-84
2021/08/13 00:41:38;;;;;;;;;20.00;19.50;36.00;23.70;;;;;;691089;28;6052;-86
2021/08/13 00:41:58;;;;;;;;;22.25;20.75;36.00;23.90;;;;;;691126;28;5998;-87
2021/08/13 00:42:19;;;;;;;;;21.80;20.80;36.00;23.90;;;;;;691130;28;6879;-86
2021/08/13 00:42:40;;;;;;;;;19.50;19.50;36.00;23.90;;;;;;691540;28;6451;-86
2021/08/13 00:43:01;;;;;;;;;18.00;18.00;36.00;23.80;;;;;;690703;28;6130;-82
2021/08/13 00:43:21;;;;;;;;;22.00;20.00;36.00;23.80;;;;;;691141;28;6221;-84
2021/08/13 00:43:43;;;;;;;;;19.20;18.60;36.00;23.70;;;;;;690982;28;6198;-85
2021/08/13 00:44:04;;;;;;;;;18.60;17.60;36.00;23.80;;;;;;691030;28;6508;-87
2021/08/13 00:44:25;;;;;;;;;19.00;19.00;36.00;23.70;;;;;;690964;28;6211;-87
2021/08/13 00:44:46;;;;;;;;;20.75;19.75;36.00;23.80;;;;;;690737;28;6930;-83
2021/08/13 00:45:07;;;;;;;;;22.25;22.00;36.00;23.90;;;;;;691384;28;5936;-84
2021/08/13 00:45:28;;;;;;;;;21.25;20.25;36.00;23.80;;;;;;690839;28;6239;-85
2021/08/13 00:45:49;;;;;;;;;19.00;19.00;36.00;24.80;;;;;;691138;28;6474;-88
2021/08/13 00:46:10;;;;;;;;;21.50;21.00;36.10;23.90;;;;;;691391;28;6209;-85
2021/08/13 00:46:30;;;;;;;;;23.00;20.40;36.00;23.80;;;;;;691352;28;6130;-84
2021/08/13 00:46:51;;;;;;;;;21.40;20.40;36.00;23.90;;;;;;691671;28;6173;-83
2021/08/13 00:47:12;;;;;;;;;21.00;19.00;36.00;23.90;;;;;;691504;28;6003;-85
2021/08/13 00:47:33;;;;;;;;;20.00;19.00;36.00;23.90;;;;;;691591;28;6133;-86
2021/08/13 00:47:54;;;;;;;;;21.50;21.00;36.10;24.00;;;;;;693800;28;6421;-85
2021/08/13 00:48:14;;;;;;;;;17.50;17.00;36.00;23.90;;;;;;694182;28;6730;-85
2021/08/13 00:48:36;;;;;;;;;20.00;19.50;36.00;23.80;;;;;;693944;28;6045;-84
2021/08/13 00:48:57;;;;;;;;;21.00;17.40;36.00;23.80;;;;;;691041;28;7799;-85
2021/08/13 00:49:18;;;;;;;;;19.40;17.40;36.10;23.70;;;;;;691351;28;6111;-84
2021/08/13 00:49:38;;;;;;;;;17.50;17.00;36.00;23.70;;;;;;691251;28;5502;-89
2021/08/13 00:49:59;;;;;;;;;20.00;19.00;36.00;23.80;;;;;;691929;28;6166;-89
2021/08/13 00:50:20;;;;;;;;;20.75;18.75;36.00;23.70;;;;;;691837;28;8318;-85
2021/08/13 00:50:41;;;;;;;;;20.00;19.00;36.10;23.80;;;;;;691993;28;6260;-92
2021/08/13 00:51:02;;;;;;;;;22.50;21.50;36.10;23.80;;;;;;689489;28;6343;-86
2021/08/13 00:51:23;;;;;;;;;19.00;18.00;36.10;23.80;;;;;;689317;28;6945;-84
2021/08/13 00:51:44;;;;;;;;;21.40;19.40;36.10;23.90;;;;;;689449;28;6149;-84
2021/08/13 00:52:05;;;;;;;;;21.00;20.00;36.10;23.80;;;;;;689169;28;6290;-85
2021/08/13 00:52:26;;;;;;;;;18.25;18.00;36.10;23.60;;;;;;686032;28;8545;-87
2021/08/13 00:52:49;;;;;;;;;21.00;20.00;36.10;23.70;;;;;;689267;28;6133;-85
2021/08/13 00:53:10;;;;;;;;;22.40;19.00;36.10;23.60;;;;;;692232;28;6204;-84
2021/08/13 00:53:31;;;;;;;;;19.60;18.60;36.10;23.60;;;;;;692204;28;5984;-85
2021/08/13 00:53:52;;;;;;;;;19.25;19.25;36.10;23.70;;;;;;692856;28;6076;-88
2021/08/13 00:54:13;;;;;;;;;19.50;19.50;36.10;23.70;;;;;;694805;28;5930;-85
2021/08/13 00:54:33;;;;;;;;;17.80;17.60;36.10;23.70;;;;;;695031;28;6148;-85
2021/08/13 00:54:54;;;;;;;;;25.00;22.25;36.10;23.70;;;;;;695533;28;6390;-87
2021/08/13 00:55:16;;;;;;;;;23.40;22.40;36.10;23.70;;;;;;694690;28;6019;-84
2021/08/13 00:55:36;;;;;;;;;23.00;22.00;36.10;23.60;;;;;;694915;28;6172;-83
2021/08/13 00:55:58;;;;;;;;;19.60;19.60;36.10;23.70;;;;;;694476;28;6118;-87
2021/08/13 00:56:20;;;;;;;;;26.50;25.00;36.10;23.60;;;;;;694294;28;6173;-86
2021/08/13 00:56:41;;;;;;;;;22.20;21.80;36.10;23.60;;;;;;691173;28;6609;-85
2021/08/13 00:57:02;;;;;;;;;25.40;23.60;36.10;23.60;;;;;;690442;28;6105;-87
2021/08/13 00:57:23;;;;;;;;;24.75;21.75;36.10;23.50;;;;;;691242;28;6010;-84
2021/08/13 00:57:44;;;;;;;;;20.50;19.50;36.10;23.60;;;;;;690979;28;6035;-84
2021/08/13 00:58:06;;;;;;;;;18.40;17.40;36.10;23.60;;;;;;691236;28;6151;-84
2021/08/13 00:58:27;;;;;;;;;21.60;21.60;36.10;23.60;;;;;;692046;28;6782;-84
2021/08/13 00:58:48;;;;;;;;;21.67;21.67;36.10;23.60;;;;;;693843;28;5927;-85
2021/08/13 00:59:10;;;;;;;;;19.00;18.60;36.10;23.60;;;;;;694138;28;6245;-86
2021/08/13 00:59:32;;;;;;;;;22.20;21.40;36.10;23.60;;;;;;694007;28;6308;-87
2021/08/13 00:59:53;;;;;;;;;23.50;22.50;36.10;23.50;;;;;;693966;28;6158;-85
2021/08/13 01:00:13;;;;;;;;;24.20;23.80;36.10;23.60;;;;;;694058;28;6151;-85
2021/08/13 01:00:35;;;;;;;;;21.67;21.67;36.10;23.50;;;;;;696494;28;5926;-84
2021/08/13 01:00:57;;;;;;;;;23.00;23.00;36.10;23.60;;;;;;696679;28;6144;-84
2021/08/13 01:01:19;;;;;;;;;20.40;19.40;36.10;23.50;;;;;;696498;28;6315;-87
2021/08/13 01:01:40;;;;;;;;;18.40;17.40;36.10;23.60;;;;;;696757;28;6165;-84
2021/08/13 01:02:01;;;;;;;;;20.80;18.80;36.10;23.60;;;;;;697914;28;6149;-86
2021/08/13 01:02:22;;;;;;;;;26.00;23.20;36.10;23.50;;;;;;698380;28;6107;-85
2021/08/13 01:02:43;;;;;;;;;24.67;20.67;36.10;23.60;;;;;;698772;28;5893;-85
2021/08/13 01:03:04;;;;;;;;;21.50;19.50;36.10;23.60;;;;;;699419;28;6620;-85
2021/08/13 01:03:25;;;;;;;;;21.75;20.50;36.10;23.60;;;;;;699445;28;6088;-87
2021/08/13 01:03:46;;;;;;;;;21.25;20.00;36.10;23.50;;;;;;699783;28;6189;-86
2021/08/13 01:04:06;;;;;;;;;26.50;25.50;36.10;23.60;;;;;;699971;28;6084;-84
2021/08/13 01:04:27;;;;;;;;;22.00;22.00;36.10;23.40;;;;;;699233;28;6169;-86
2021/08/13 01:04:48;;;;;;;;;22.00;21.50;36.10;23.50;;;;;;697472;28;6192;-86
2021/08/13 01:05:09;;;;;;;;;19.00;18.00;36.10;23.40;;;;;;696794;28;5966;-87
2021/08/13 01:05:30;;;;;;;;;19.00;19.00;36.10;23.40;;;;;;696909;28;6169;-87
2021/08/13 01:05:51;;;;;;;;;24.75;23.00;36.10;23.40;;;;;;699315;28;6597;-86
2021/08/13 01:06:13;;;;;;;;;22.80;20.60;36.10;23.40;;;;;;699362;28;8279;-85
2021/08/13 01:06:34;;;;;;;;;23.80;21.80;36.10;23.40;;;;;;699398;28;6154;-84
2021/08/13 01:06:55;;;;;;;;;24.00;24.00;36.10;23.40;;;;;;699406;28;5873;-85
2021/08/13 01:07:16;;;;;;;;;23.50;22.50;36.10;23.40;;;;;;699536;28;6778;-84
2021/08/13 01:07:37;;;;;;;;;23.40;23.40;36.10;23.40;;;;;;698494;28;6631;-84
2021/08/13 01:07:57;;;;;;;;;20.50;20.50;36.10;23.40;;;;;;696640;28;6078;-85
2021/08/13 01:08:18;;;;;;;;;20.50;19.50;36.10;23.50;;;;;;696784;28;6152;-85
2021/08/13 01:08:40;;;;;;;;;20.00;19.00;36.10;23.40;;;;;;699130;28;6090;-84
2021/08/13 01:09:01;;;;;;;;;25.50;23.75;36.20;23.50;;;;;;699526;28;6172;-84
2021/08/13 01:09:23;;;;;;;;;21.25;20.25;36.10;23.40;;;;;;699560;28;6145;-84
2021/08/13 01:09:44;;;;;;;;;22.40;21.00;36.20;23.50;;;;;;699276;28;6371;-84
2021/08/13 01:10:06;;;;;;;;;21.50;20.50;36.10;23.40;;;;;;696313;28;6530;-85
2021/08/13 01:10:33;;;;;;;;;19.50;18.50;36.20;23.40;;;;;;696561;28;6309;-86
2021/08/13 01:11:01;;;;;;;;;21.60;21.60;36.00;23.30;;;;;;696450;28;6746;-85
2021/08/13 01:11:27;;;;;;;;;22.40;22.00;36.20;23.50;;;;;;696385;28;6419;-85
2021/08/13 01:12:02;;;;;;;;;21.60;20.40;36.20;23.50;;;;;;696441;28;6530;-85
2021/08/13 01:12:32;;;;;;;;;21.50;20.00;36.20;23.50;;;;;;696700;28;6164;-86
2021/08/13 01:13:17;;;;;;;;;20.75;19.25;36.20;23.30;;;;;;696637;28;6402;-87
2021/08/13 01:13:55;;;;;;;;;26.80;26.00;36.20;23.50;;;;;;699067;28;8522;-86
2021/08/13 01:14:30;;;;;;;;;25.00;24.00;36.10;23.40;;;;;;699064;28;8265;-83
2021/08/13 01:15:07;;;;;;;;;26.75;25.25;36.20;23.50;;;;;;696215;28;8464;-85
2021/08/13 01:15:34;;;;;;;;;25.75;24.75;36.20;23.40;;;;;;695223;28;6490;-85
2021/08/13 01:16:01;;;;;;;;;22.40;20.40;36.20;23.40;;;;;;693523;28;6415;-84
2021/08/13 01:16:25;;;;;;;;;23.00;22.00;36.20;23.40;;;;;;696376;28;6342;-86
2021/08/13 01:16:49;;;;;;;;;23.00;22.00;36.20;23.40;;;;;;698215;28;6435;-86
2021/08/13 01:17:12;;;;;;;;;23.00;22.50;36.20;23.40;;;;;;699354;28;6760;-82
2021/08/13 01:18:01;;;;;;;;;21.60;20.60;36.20;23.40;;;;;;696642;28;6386;-86
2021/08/13 01:18:34;;;;;;;;;26.00;24.00;36.10;23.30;;;;;;690780;28;6199;-85
2021/08/13 01:19:06;;;;;;;;;23.25;22.50;36.20;23.40;;;;;;691067;28;6205;-86
2021/08/13 01:19:48;;;;;;;;;21.80;21.00;36.10;23.30;;;;;;690936;28;6234;-88
2021/08/13 01:20:24;;;;;;;;;23.25;20.00;36.10;23.30;;;;;;690701;28;7601;-87
2021/08/13 01:21:06;;;;;;;;;21.50;20.50;36.20;23.60;;;;;;690961;28;6631;-87
2021/08/13 01:21:59;;;;;;;;;22.00;20.00;36.10;23.30;;;;;;690837;28;6081;-84
2021/08/13 01:22:25;;;;;;;;;21.40;21.20;36.10;23.50;;;;;;690835;28;7197;-88
2021/08/13 01:22:58;;;;;;;;;24.40;24.40;36.20;23.60;;;;;;690991;28;6163;-87
2021/08/13 01:23:29;;;;;;;;;26.20;23.40;36.10;23.40;;;;;;690675;28;6266;-87
2021/08/13 01:24:07;;;;;;;;;21.00;19.80;36.10;23.40;;;;;;690929;28;6612;-88
2021/08/13 01:24:32;;;;;;;;;25.00;23.40;36.20;23.40;;;;;;690674;28;6255;-88
2021/08/13 01:24:59;;;;;;;;;23.20;20.00;36.10;23.40;;;;;;687816;28;9422;-85
2021/08/13 01:25:30;;;;;;;;;23.60;22.20;36.10;23.40;;;;;;688085;28;6430;-85
2021/08/13 01:25:56;;;;;;;;;28.00;26.60;36.10;23.40;;;;;;688138;28;6273;-86
2021/08/13 01:26:18;;;;;;;;;21.00;21.00;36.10;23.40;;;;;;687117;28;6861;-84
2021/08/13 01:26:48;;;;;;;;;22.50;20.50;36.10;23.40;;;;;;686829;28;6763;-85
2021/08/13 01:27:13;;;;;;;;;24.00;24.00;36.10;23.10;;;;;;690901;28;7279;-85
2021/08/13 01:27:38;;;;;;;;;22.75;22.75;36.10;23.20;;;;;;690643;28;7483;-84
2021/08/13 01:28:12;;;;;;;;;24.75;23.75;36.10;23.30;;;;;;690968;28;6303;-89
2021/08/13 01:28:57;;;;;;;;;25.00;24.00;36.10;23.20;;;;;;690909;28;6396;-85
2021/08/13 01:29:20;;;;;;;;;20.60;20.00;36.10;23.10;;;;;;690801;28;6120;-88
2021/08/13 01:29:43;;;;;;;;;24.40;22.40;36.10;23.40;;;;;;687920;28;8505;-87
2021/08/13 01:30:11;;;;;;;;;21.60;21.00;36.10;23.20;;;;;;687816;28;8765;-86
2021/08/13 01:30:35;;;;;;;;;21.75;21.75;36.10;23.20;;;;;;688022;28;7156;-85
2021/08/13 01:30:56;;;;;;;;;24.50;21.00;36.10;23.20;;;;;;685335;28;6373;-85
2021/08/13 01:31:23;;;;;;;;;23.75;23.75;36.10;23.10;;;;;;685343;28;8394;-84
2021/08/13 01:32:13;;;;;;;;;22.00;21.00;36.10;23.20;;;;;;688127;28;6696;-85
2021/08/13 01:32:39;;;;;;;;;25.00;23.50;36.10;23.20;;;;;;685748;28;6647;-85
2021/08/13 01:33:12;;;;;;;;;21.00;21.00;36.10;23.20;;;;;;690786;28;6769;-86
2021/08/13 01:33:33;;;;;;;;;26.50;23.50;36.10;23.30;;;;;;690653;28;6421;-85
2021/08/13 01:34:06;;;;;;;;;22.80;21.80;36.10;23.40;;;;;;690687;28;6071;-83
2021/08/13 01:34:28;;;;;;;;;23.40;22.40;36.10;23.30;;;;;;690164;28;8728;-85
2021/08/13 01:34:58;;;;;;;;;23.75;22.75;36.10;23.30;;;;;;690972;28;6188;-85
2021/08/13 01:35:23;;;;;;;;;20.00;19.00;36.10;23.20;;;;;;690481;28;7008;-86
2021/08/13 01:35:46;;;;;;;;;21.75;21.50;36.10;23.20;;;;;;690797;28;6398;-85
2021/08/13 01:36:10;;;;;;;;;22.40;22.40;36.10;23.40;;;;;;688063;28;6800;-85
2021/08/13 01:36:32;;;;;;;;;21.00;21.00;36.00;23.30;;;;;;685230;28;6663;-88
2021/08/13 01:36:58;;;;;;;;;21.60;21.60;36.00;23.10;;;;;;685207;28;8621;-85
2021/08/13 01:37:21;;;;;;;;;25.00;24.00;36.00;23.10;;;;;;687981;28;6219;-85
2021/08/13 01:37:52;;;;;;;;;23.75;22.25;36.00;23.20;;;;;;684887;28;7177;-85
2021/08/13 01:38:21;;;;;;;;;20.40;19.60;36.00;23.10;;;;;;688092;28;6243;-84
2021/08/13 01:38:42;;;;;;;;;22.00;21.00;36.00;23.10;;;;;;688006;28;6877;-85
2021/08/13 01:39:04;;;;;;;;;21.80;20.60;36.00;23.30;;;;;;688141;28;6060;-85
2021/08/13 01:39:28;;;;;;;;;20.60;19.40;36.00;23.10;;;;;;688093;28;6591;-89
2021/08/13 01:39:52;;;;;;;;;24.00;23.00;36.00;23.20;;;;;;688074;28;6217;-85
2021/08/13 01:40:16;;;;;;;;;22.80;21.80;36.00;23.20;;;;;;688015;28;6381;-85
2021/08/13 01:40:46;;;;;;;;;20.75;19.25;36.00;24.00;;;;;;687808;28;8264;-83
2021/08/13 01:41:09;;;;;;;;;23.00;22.80;36.00;23.10;;;;;;688286;28;6341;-84
2021/08/13 01:41:36;;;;;;;;;20.00;19.00;36.00;23.20;;;;;;690786;28;8698;-87
2021/08/13 01:41:58;;;;;;;;;19.50;19.00;36.00;23.10;;;;;;690686;28;6069;-85
2021/08/13 01:42:19;;;;;;;;;23.00;21.00;36.00;23.10;;;;;;690744;28;6690;-85
2021/08/13 01:42:42;;;;;;;;;24.40;22.20;36.00;23.10;;;;;;691013;28;6069;-86
2021/08/13 01:43:04;;;;;;;;;25.00;25.00;36.00;23.50;;;;;;690933;28;6185;-87
2021/08/13 01:43:27;;;;;;;;;25.25;24.25;36.00;23.10;;;;;;688053;28;8782;-88
2021/08/13 01:43:50;;;;;;;;;23.00;22.60;36.00;23.10;;;;;;688016;28;6225;-89
2021/08/13 01:44:12;;;;;;;;;21.60;20.00;36.00;23.00;;;;;;685176;28;8901;-85
2021/08/13 01:44:33;;;;;;;;;20.80;20.80;36.00;23.00;;;;;;685211;28;8037;-85
2021/08/13 01:44:56;;;;;;;;;22.60;22.00;36.00;23.20;;;;;;685418;28;6109;-84
2021/08/13 01:45:27;;;;;;;;;23.00;22.00;36.00;23.10;;;;;;686655;28;8110;-90
2021/08/13 01:45:49;;;;;;;;;21.20;21.20;36.00;23.30;;;;;;687948;28;6236;-88
2021/08/13 01:46:12;;;;;;;;;21.00;21.00;36.00;23.10;;;;;;690569;28;6342;-87
2021/08/13 01:46:33;;;;;;;;;21.00;19.75;36.00;23.10;;;;;;690655;28;6344;-86
2021/08/13 01:46:56;;;;;;;;;22.00;20.50;36.00;23.20;;;;;;690861;28;8364;-87
2021/08/13 01:47:17;;;;;;;;;21.00;21.00;35.90;23.20;;;;;;690836;28;6859;-87
2021/08/13 01:47:40;;;;;;;;;24.75;23.00;36.00;23.20;;;;;;690866;28;6415;-88
2021/08/13 01:48:04;;;;;;;;;25.00;22.00;36.00;23.30;;;;;;687956;28;8717;-87
2021/08/13 01:48:29;;;;;;;;;22.80;20.20;36.00;23.20;;;;;;685080;28;6557;-84
2021/08/13 01:48:50;;;;;;;;;18.00;17.75;36.00;23.10;;;;;;685417;28;6818;-86
2021/08/13 01:49:12;;;;;;;;;23.80;20.40;36.00;23.10;;;;;;685394;28;7146;-86
2021/08/13 01:49:35;;;;;;;;;25.00;21.50;35.90;23.10;;;;;;685357;28;6275;-84
2021/08/13 01:49:57;;;;;;;;;23.75;21.00;35.90;23.20;;;;;;685239;28;6214;-85
2021/08/13 01:50:19;;;;;;;;;21.40;21.00;35.90;23.10;;;;;;686974;28;6512;-87
2021/08/13 01:50:41;;;;;;;;;22.00;21.00;35.90;23.10;;;;;;687938;28;6538;-85
2021/08/13 01:51:01;;;;;;;;;20.75;20.00;36.00;23.10;;;;;;689362;28;6475;-86
2021/08/13 01:51:24;;;;;;;;;22.60;22.40;36.00;23.20;;;;;;690849;28;6156;-86
2021/08/13 01:51:46;;;;;;;;;24.50;24.00;36.00;23.20;;;;;;687444;28;8516;-86
2021/08/13 01:52:08;;;;;;;;;22.40;21.40;35.90;23.10;;;;;;687986;28;6149;-86
2021/08/13 01:52:29;;;;;;;;;21.00;20.25;35.90;23.00;;;;;;687965;28;6291;-88
2021/08/13 01:52:55;;;;;;;;;19.00;19.00;35.90;23.10;;;;;;687815;28;6098;-86
2021/08/13 01:53:20;;;;;;;;;27.50;24.50;35.90;24.00;;;;;;685199;28;6395;-87
2021/08/13 01:53:43;;;;;;;;;22.75;21.75;36.00;23.30;;;;;;687436;28;6738;-86
2021/08/13 01:54:05;;;;;;;;;21.20;19.80;36.00;23.20;;;;;;685120;28;9800;-86
2021/08/13 01:54:27;;;;;;;;;22.40;20.40;36.00;23.10;;;;;;685383;28;6898;-86
2021/08/13 01:54:48;;;;;;;;;22.40;20.00;35.90;23.10;;;;;;685000;28;6998;-87
2021/08/13 01:55:12;;;;;;;;;18.00;17.80;36.00;23.20;;;;;;686872;28;8390;-87
2021/08/13 01:55:34;;;;;;;;;24.20;23.20;35.90;23.00;;;;;;685328;28;9072;-87
2021/08/13 01:55:56;;;;;;;;;21.80;20.80;35.90;23.10;;;;;;685272;28;6452;-86
2021/08/13 01:56:18;;;;;;;;;19.40;18.40;36.00;23.10;;;;;;686921;28;6090;-86
2021/08/13 01:56:39;;;;;;;;;19.25;19.00;36.00;23.30;;;;;;693040;28;8386;-86
2021/08/13 01:57:00;;;;;;;;;19.60;19.00;36.00;23.10;;;;;;694725;28;6666;-87
2021/08/13 01:57:22;;;;;;;;;22.80;21.80;35.90;23.00;;;;;;694633;28;6027;-86
2021/08/13 01:57:44;;;;;;;;;23.00;23.00;35.90;23.00;;;;;;696405;28;6187;-86
2021/08/13 01:58:06;;;;;;;;;21.20;20.00;35.90;23.10;;;;;;693487;28;6903;-86
2021/08/13 01:58:28;;;;;;;;;21.00;20.00;36.00;23.20;;;;;;693690;28;6044;-87
2021/08/13 01:58:49;;;;;;;;;23.40;22.40;36.00;23.10;;;;;;693613;28;6224;-86
2021/08/13 01:59:10;;;;;;;;;20.60;19.60;35.90;23.10;;;;;;694647;28;6018;-85
2021/08/13 01:59:35;;;;;;;;;22.00;20.80;35.90;23.00;;;;;;696575;28;6169;-86